sensor_id;sensor_type;location;lat;lon;timestamp;P1;durP1;ratioP1;P2;durP2;ratioP2
66628;SDS011;53532;53.084;6.352;2023-02-15T00:01:48;105.20;;;53.77;;
66628;SDS011;53532;53.084;6.352;2023-02-15T00:04:17;90.80;;;49.57;;
66628;SDS011;53532;53.084;6.352;2023-02-15T00:06:44;95.77;;;50.57;;
66628;SDS011;53532;53.084;6.352;2023-02-15T00:09:11;70.77;;;48.67;;
66628;SDS011;53532;53.084;6.352;2023-02-15T00:11:38;101.70;;;52.77;;
66628;SDS011;53532;53.084;6.352;2023-02-15T00:14:05;114.47;;;54.33;;
66628;SDS011;53532;53.084;6.352;2023-02-15T00:16:31;77.27;;;50.30;;
66628;SDS011;53532;53.084;6.352;2023-02-15T00:18:57;79.87;;;50.53;;
66628;SDS011;53532;53.084;6.352;2023-02-15T00:21:26;83.13;;;53.07;;
66628;SDS011;53532;53.084;6.352;2023-02-15T00:23:53;82.63;;;52.43;;
66628;SDS011;53532;53.084;6.352;2023-02-15T00:26:21;112.90;;;58.93;;
66628;SDS011;53532;53.084;6.352;2023-02-15T00:28:47;146.37;;;62.70;;
66628;SDS011;53532;53.084;6.352;2023-02-15T00:31:13;175.17;;;63.80;;
66628;SDS011;53532;53.084;6.352;2023-02-15T00:33:39;91.63;;;51.50;;
66628;SDS011;53532;53.084;6.352;2023-02-15T00:36:06;87.83;;;50.27;;
66628;SDS011;53532;53.084;6.352;2023-02-15T00:38:33;148.23;;;58.63;;
66628;SDS011;53532;53.084;6.352;2023-02-15T00:41:00;223.40;;;64.97;;
66628;SDS011;53532;53.084;6.352;2023-02-15T00:43:28;220.60;;;63.43;;
66628;SDS011;53532;53.084;6.352;2023-02-15T00:45:54;145.73;;;61.57;;
66628;SDS011;53532;53.084;6.352;2023-02-15T00:48:20;223.03;;;68.37;;
66628;SDS011;53532;53.084;6.352;2023-02-15T00:50:48;172.17;;;61.10;;
66628;SDS011;53532;53.084;6.352;2023-02-15T00:53:15;245.33;;;67.47;;
66628;SDS011;53532;53.084;6.352;2023-02-15T00:55:41;280.47;;;80.77;;
66628;SDS011;53532;53.084;6.352;2023-02-15T00:58:07;210.27;;;67.60;;
66628;SDS011;53532;53.084;6.352;2023-02-15T01:00:35;359.67;;;76.63;;
66628;SDS011;53532;53.084;6.352;2023-02-15T01:03:01;378.70;;;80.53;;
66628;SDS011;53532;53.084;6.352;2023-02-15T01:05:28;541.27;;;95.53;;
66628;SDS011;53532;53.084;6.352;2023-02-15T01:07:54;346.17;;;77.83;;
66628;SDS011;53532;53.084;6.352;2023-02-15T01:10:20;232.23;;;68.60;;
66628;SDS011;53532;53.084;6.352;2023-02-15T01:12:47;419.50;;;83.37;;
66628;SDS011;53532;53.084;6.352;2023-02-15T01:15:13;466.30;;;93.27;;
66628;SDS011;53532;53.084;6.352;2023-02-15T01:17:40;213.30;;;67.93;;
66628;SDS011;53532;53.084;6.352;2023-02-15T01:20:09;190.67;;;69.83;;
66628;SDS011;53532;53.084;6.352;2023-02-15T01:22:35;509.07;;;96.80;;
66628;SDS011;53532;53.084;6.352;2023-02-15T01:25:01;192.43;;;70.93;;
66628;SDS011;53532;53.084;6.352;2023-02-15T01:27:27;343.57;;;86.50;;
66628;SDS011;53532;53.084;6.352;2023-02-15T01:29:55;319.00;;;85.30;;
66628;SDS011;53532;53.084;6.352;2023-02-15T01:32:23;400.13;;;86.80;;
66628;SDS011;53532;53.084;6.352;2023-02-15T01:34:50;344.70;;;80.03;;
66628;SDS011;53532;53.084;6.352;2023-02-15T01:37:16;313.10;;;78.90;;
66628;SDS011;53532;53.084;6.352;2023-02-15T01:39:42;377.13;;;85.00;;
66628;SDS011;53532;53.084;6.352;2023-02-15T01:42:09;293.63;;;78.73;;
66628;SDS011;53532;53.084;6.352;2023-02-15T01:44:46;356.10;;;83.30;;
66628;SDS011;53532;53.084;6.352;2023-02-15T01:47:15;324.70;;;79.60;;
66628;SDS011;53532;53.084;6.352;2023-02-15T01:49:43;264.17;;;75.70;;
66628;SDS011;53532;53.084;6.352;2023-02-15T01:52:11;217.77;;;70.17;;
66628;SDS011;53532;53.084;6.352;2023-02-15T01:54:38;191.23;;;67.70;;
66628;SDS011;53532;53.084;6.352;2023-02-15T01:57:07;189.47;;;72.60;;
66628;SDS011;53532;53.084;6.352;2023-02-15T01:59:35;364.10;;;90.90;;
66628;SDS011;53532;53.084;6.352;2023-02-15T02:02:02;280.03;;;78.33;;
66628;SDS011;53532;53.084;6.352;2023-02-15T02:04:31;210.93;;;71.37;;
66628;SDS011;53532;53.084;6.352;2023-02-15T02:06:58;332.93;;;88.83;;
66628;SDS011;53532;53.084;6.352;2023-02-15T02:09:25;294.40;;;80.00;;
66628;SDS011;53532;53.084;6.352;2023-02-15T02:11:52;213.67;;;74.83;;
66628;SDS011;53532;53.084;6.352;2023-02-15T02:14:19;238.00;;;84.33;;
66628;SDS011;53532;53.084;6.352;2023-02-15T02:16:47;396.87;;;93.20;;
66628;SDS011;53532;53.084;6.352;2023-02-15T02:22:14;226.30;;;75.77;;
66628;SDS011;53532;53.084;6.352;2023-02-15T02:24:59;299.27;;;82.20;;
66628;SDS011;53532;53.084;6.352;2023-02-15T02:27:32;288.37;;;84.43;;
66628;SDS011;53532;53.084;6.352;2023-02-15T02:30:26;319.43;;;87.70;;
66628;SDS011;53532;53.084;6.352;2023-02-15T02:33:05;317.23;;;82.23;;
66628;SDS011;53532;53.084;6.352;2023-02-15T02:35:35;388.00;;;94.30;;
66628;SDS011;53532;53.084;6.352;2023-02-15T02:38:06;514.17;;;101.83;;
66628;SDS011;53532;53.084;6.352;2023-02-15T02:40:35;415.97;;;95.83;;
66628;SDS011;53532;53.084;6.352;2023-02-15T02:43:06;491.30;;;103.37;;
66628;SDS011;53532;53.084;6.352;2023-02-15T02:45:35;531.80;;;104.30;;
66628;SDS011;53532;53.084;6.352;2023-02-15T02:48:08;594.97;;;111.50;;
66628;SDS011;53532;53.084;6.352;2023-02-15T02:50:38;550.17;;;110.40;;
66628;SDS011;53532;53.084;6.352;2023-02-15T02:53:05;512.87;;;111.43;;
66628;SDS011;53532;53.084;6.352;2023-02-15T02:55:31;527.47;;;111.77;;
66628;SDS011;53532;53.084;6.352;2023-02-15T02:58:00;435.03;;;98.70;;
66628;SDS011;53532;53.084;6.352;2023-02-15T03:00:29;588.10;;;115.30;;
66628;SDS011;53532;53.084;6.352;2023-02-15T03:02:59;644.70;;;114.87;;
66628;SDS011;53532;53.084;6.352;2023-02-15T03:05:32;713.27;;;121.50;;
66628;SDS011;53532;53.084;6.352;2023-02-15T03:08:00;691.97;;;116.77;;
66628;SDS011;53532;53.084;6.352;2023-02-15T03:10:31;628.85;;;110.05;;
66628;SDS011;53532;53.084;6.352;2023-02-15T03:12:58;388.33;;;90.20;;
66628;SDS011;53532;53.084;6.352;2023-02-15T03:15:25;201.20;;;72.80;;
66628;SDS011;53532;53.084;6.352;2023-02-15T03:18:12;206.00;;;77.00;;
66628;SDS011;53532;53.084;6.352;2023-02-15T03:20:40;437.87;;;90.20;;
66628;SDS011;53532;53.084;6.352;2023-02-15T03:23:08;213.17;;;76.23;;
66628;SDS011;53532;53.084;6.352;2023-02-15T03:25:37;309.47;;;88.27;;
66628;SDS011;53532;53.084;6.352;2023-02-15T03:28:05;292.93;;;81.70;;
66628;SDS011;53532;53.084;6.352;2023-02-15T03:30:32;338.97;;;90.87;;
66628;SDS011;53532;53.084;6.352;2023-02-15T03:33:00;337.77;;;92.80;;
66628;SDS011;53532;53.084;6.352;2023-02-15T03:35:31;350.30;;;95.67;;
66628;SDS011;53532;53.084;6.352;2023-02-15T03:38:00;444.40;;;103.70;;
66628;SDS011;53532;53.084;6.352;2023-02-15T03:40:28;471.13;;;104.10;;
66628;SDS011;53532;53.084;6.352;2023-02-15T03:43:15;539.40;;;113.83;;
66628;SDS011;53532;53.084;6.352;2023-02-15T03:45:45;497.87;;;111.17;;
66628;SDS011;53532;53.084;6.352;2023-02-15T03:48:20;523.90;;;107.07;;
66628;SDS011;53532;53.084;6.352;2023-02-15T03:50:46;315.10;;;90.83;;
66628;SDS011;53532;53.084;6.352;2023-02-15T03:53:33;211.00;;;83.53;;
66628;SDS011;53532;53.084;6.352;2023-02-15T03:55:59;206.97;;;86.80;;
66628;SDS011;53532;53.084;6.352;2023-02-15T03:58:25;319.73;;;92.00;;
66628;SDS011;53532;53.084;6.352;2023-02-15T04:01:11;629.93;;;132.40;;
66628;SDS011;53532;53.084;6.352;2023-02-15T04:03:59;510.47;;;112.23;;
66628;SDS011;53532;53.084;6.352;2023-02-15T04:06:26;328.27;;;100.60;;
66628;SDS011;53532;53.084;6.352;2023-02-15T04:08:54;434.37;;;104.27;;
66628;SDS011;53532;53.084;6.352;2023-02-15T04:11:39;505.13;;;111.13;;
66628;SDS011;53532;53.084;6.352;2023-02-15T04:14:05;585.50;;;116.07;;
66628;SDS011;53532;53.084;6.352;2023-02-15T04:16:50;532.00;;;111.77;;
66628;SDS011;53532;53.084;6.352;2023-02-15T04:19:16;472.97;;;103.37;;
66628;SDS011;53532;53.084;6.352;2023-02-15T04:22:01;472.00;;;104.60;;
66628;SDS011;53532;53.084;6.352;2023-02-15T04:24:47;541.17;;;108.77;;
66628;SDS011;53532;53.084;6.352;2023-02-15T04:27:32;519.80;;;111.27;;
66628;SDS011;53532;53.084;6.352;2023-02-15T04:29:58;498.63;;;108.17;;
66628;SDS011;53532;53.084;6.352;2023-02-15T04:32:24;514.10;;;113.40;;
66628;SDS011;53532;53.084;6.352;2023-02-15T04:34:50;592.53;;;120.77;;
66628;SDS011;53532;53.084;6.352;2023-02-15T04:37:16;311.30;;;93.47;;
66628;SDS011;53532;53.084;6.352;2023-02-15T04:39:42;242.60;;;87.03;;
66628;SDS011;53532;53.084;6.352;2023-02-15T04:42:10;221.50;;;84.97;;
66628;SDS011;53532;53.084;6.352;2023-02-15T04:44:36;454.70;;;105.47;;
66628;SDS011;53532;53.084;6.352;2023-02-15T04:47:02;298.30;;;90.23;;
66628;SDS011;53532;53.084;6.352;2023-02-15T04:49:28;308.13;;;93.47;;
66628;SDS011;53532;53.084;6.352;2023-02-15T04:51:56;261.83;;;88.13;;
66628;SDS011;53532;53.084;6.352;2023-02-15T04:54:22;330.73;;;96.53;;
66628;SDS011;53532;53.084;6.352;2023-02-15T04:56:48;252.30;;;87.03;;
66628;SDS011;53532;53.084;6.352;2023-02-15T04:59:15;219.77;;;85.83;;
66628;SDS011;53532;53.084;6.352;2023-02-15T05:01:42;208.10;;;82.47;;
66628;SDS011;53532;53.084;6.352;2023-02-15T05:04:08;279.00;;;92.63;;
66628;SDS011;53532;53.084;6.352;2023-02-15T05:06:34;256.83;;;87.37;;
66628;SDS011;53532;53.084;6.352;2023-02-15T05:09:00;278.93;;;92.80;;
66628;SDS011;53532;53.084;6.352;2023-02-15T05:11:26;267.73;;;95.97;;
66628;SDS011;53532;53.084;6.352;2023-02-15T05:13:53;260.37;;;97.13;;
66628;SDS011;53532;53.084;6.352;2023-02-15T05:16:20;236.27;;;92.20;;
66628;SDS011;53532;53.084;6.352;2023-02-15T05:18:46;282.47;;;97.83;;
66628;SDS011;53532;53.084;6.352;2023-02-15T05:21:12;343.03;;;106.10;;
66628;SDS011;53532;53.084;6.352;2023-02-15T05:23:41;508.00;;;125.43;;
66628;SDS011;53532;53.084;6.352;2023-02-15T05:26:08;335.43;;;107.17;;
66628;SDS011;53532;53.084;6.352;2023-02-15T05:28:53;476.90;;;125.70;;
66628;SDS011;53532;53.084;6.352;2023-02-15T05:31:21;418.30;;;116.90;;
66628;SDS011;53532;53.084;6.352;2023-02-15T05:33:47;273.93;;;97.47;;
66628;SDS011;53532;53.084;6.352;2023-02-15T05:36:13;297.67;;;102.97;;
66628;SDS011;53532;53.084;6.352;2023-02-15T05:38:39;393.40;;;123.97;;
66628;SDS011;53532;53.084;6.352;2023-02-15T05:41:06;579.63;;;150.73;;
66628;SDS011;53532;53.084;6.352;2023-02-15T05:43:33;671.67;;;160.77;;
66628;SDS011;53532;53.084;6.352;2023-02-15T05:46:00;872.10;;;190.00;;
66628;SDS011;53532;53.084;6.352;2023-02-15T05:48:27;895.17;;;173.77;;
66628;SDS011;53532;53.084;6.352;2023-02-15T05:50:58;485.23;;;137.10;;
66628;SDS011;53532;53.084;6.352;2023-02-15T05:53:25;533.47;;;141.40;;
66628;SDS011;53532;53.084;6.352;2023-02-15T05:55:51;641.87;;;164.03;;
66628;SDS011;53532;53.084;6.352;2023-02-15T05:58:18;1097.87;;;208.27;;
66628;SDS011;53532;53.084;6.352;2023-02-15T06:00:44;1265.43;;;224.00;;
66628;SDS011;53532;53.084;6.352;2023-02-15T06:03:11;917.27;;;191.77;;
66628;SDS011;53532;53.084;6.352;2023-02-15T06:05:38;790.03;;;167.97;;
66628;SDS011;53532;53.084;6.352;2023-02-15T06:08:04;586.03;;;142.43;;
66628;SDS011;53532;53.084;6.352;2023-02-15T06:10:30;529.87;;;143.33;;
66628;SDS011;53532;53.084;6.352;2023-02-15T06:12:57;478.10;;;138.33;;
66628;SDS011;53532;53.084;6.352;2023-02-15T06:15:23;400.97;;;132.13;;
66628;SDS011;53532;53.084;6.352;2023-02-15T06:17:49;388.33;;;137.53;;
66628;SDS011;53532;53.084;6.352;2023-02-15T06:20:15;371.97;;;134.30;;
66628;SDS011;53532;53.084;6.352;2023-02-15T06:22:43;337.57;;;130.20;;
66628;SDS011;53532;53.084;6.352;2023-02-15T06:25:09;326.40;;;126.73;;
66628;SDS011;53532;53.084;6.352;2023-02-15T06:27:36;376.87;;;131.83;;
66628;SDS011;53532;53.084;6.352;2023-02-15T06:30:02;363.67;;;129.57;;
66628;SDS011;53532;53.084;6.352;2023-02-15T06:32:29;346.70;;;126.83;;
66628;SDS011;53532;53.084;6.352;2023-02-15T06:34:56;320.60;;;123.47;;
66628;SDS011;53532;53.084;6.352;2023-02-15T06:37:22;294.90;;;116.80;;
66628;SDS011;53532;53.084;6.352;2023-02-15T06:39:50;252.03;;;112.00;;
66628;SDS011;53532;53.084;6.352;2023-02-15T06:42:16;255.87;;;113.93;;
66628;SDS011;53532;53.084;6.352;2023-02-15T06:44:43;269.63;;;116.97;;
66628;SDS011;53532;53.084;6.352;2023-02-15T06:47:09;254.60;;;114.13;;
66628;SDS011;53532;53.084;6.352;2023-02-15T06:49:39;253.90;;;113.03;;
66628;SDS011;53532;53.084;6.352;2023-02-15T06:52:05;279.43;;;117.27;;
66628;SDS011;53532;53.084;6.352;2023-02-15T06:54:31;257.57;;;111.70;;
66628;SDS011;53532;53.084;6.352;2023-02-15T06:56:58;276.67;;;112.40;;
66628;SDS011;53532;53.084;6.352;2023-02-15T06:59:25;240.17;;;108.00;;
66628;SDS011;53532;53.084;6.352;2023-02-15T07:01:51;259.97;;;109.43;;
66628;SDS011;53532;53.084;6.352;2023-02-15T07:04:17;232.30;;;108.30;;
66628;SDS011;53532;53.084;6.352;2023-02-15T07:06:44;240.00;;;106.80;;
66628;SDS011;53532;53.084;6.352;2023-02-15T07:09:10;216.53;;;100.70;;
66628;SDS011;53532;53.084;6.352;2023-02-15T07:11:37;226.03;;;103.93;;
66628;SDS011;53532;53.084;6.352;2023-02-15T07:14:25;229.03;;;101.27;;
66628;SDS011;53532;53.084;6.352;2023-02-15T07:16:51;208.87;;;99.10;;
66628;SDS011;53532;53.084;6.352;2023-02-15T07:19:17;220.00;;;101.97;;
66628;SDS011;53532;53.084;6.352;2023-02-15T07:21:43;202.87;;;97.17;;
66628;SDS011;53532;53.084;6.352;2023-02-15T07:24:10;212.50;;;99.43;;
66628;SDS011;53532;53.084;6.352;2023-02-15T07:26:36;205.87;;;97.00;;
66628;SDS011;53532;53.084;6.352;2023-02-15T07:29:03;200.63;;;97.73;;
66628;SDS011;53532;53.084;6.352;2023-02-15T07:31:30;200.37;;;97.60;;
66628;SDS011;53532;53.084;6.352;2023-02-15T07:33:58;196.63;;;96.93;;
66628;SDS011;53532;53.084;6.352;2023-02-15T07:36:24;205.23;;;99.13;;
66628;SDS011;53532;53.084;6.352;2023-02-15T07:38:50;222.47;;;101.10;;
66628;SDS011;53532;53.084;6.352;2023-02-15T07:41:16;203.60;;;96.70;;
66628;SDS011;53532;53.084;6.352;2023-02-15T07:46:13;187.03;;;92.17;;
66628;SDS011;53532;53.084;6.352;2023-02-15T07:48:41;198.03;;;95.13;;
66628;SDS011;53532;53.084;6.352;2023-02-15T07:51:08;192.80;;;94.13;;
66628;SDS011;53532;53.084;6.352;2023-02-15T07:53:35;188.30;;;93.90;;
66628;SDS011;53532;53.084;6.352;2023-02-15T07:56:01;201.80;;;95.33;;
66628;SDS011;53532;53.084;6.352;2023-02-15T07:58:28;199.17;;;94.70;;
66628;SDS011;53532;53.084;6.352;2023-02-15T08:01:13;175.20;;;91.10;;
66628;SDS011;53532;53.084;6.352;2023-02-15T08:03:41;211.37;;;95.60;;
66628;SDS011;53532;53.084;6.352;2023-02-15T08:06:07;196.23;;;93.37;;
66628;SDS011;53532;53.084;6.352;2023-02-15T08:08:33;209.80;;;96.70;;
66628;SDS011;53532;53.084;6.352;2023-02-15T08:11:01;179.37;;;91.07;;
66628;SDS011;53532;53.084;6.352;2023-02-15T08:13:46;184.93;;;93.10;;
66628;SDS011;53532;53.084;6.352;2023-02-15T08:16:19;181.80;;;90.20;;
66628;SDS011;53532;53.084;6.352;2023-02-15T08:18:46;186.07;;;94.10;;
66628;SDS011;53532;53.084;6.352;2023-02-15T08:21:13;174.17;;;88.90;;
66628;SDS011;53532;53.084;6.352;2023-02-15T08:23:39;173.03;;;91.90;;
66628;SDS011;53532;53.084;6.352;2023-02-15T08:26:05;177.93;;;89.90;;
66628;SDS011;53532;53.084;6.352;2023-02-15T08:28:31;162.83;;;88.13;;
66628;SDS011;53532;53.084;6.352;2023-02-15T08:31:03;191.83;;;91.23;;
66628;SDS011;53532;53.084;6.352;2023-02-15T08:33:29;179.93;;;90.20;;
66628;SDS011;53532;53.084;6.352;2023-02-15T08:35:57;175.23;;;87.37;;
66628;SDS011;53532;53.084;6.352;2023-02-15T08:38:27;160.90;;;85.70;;
66628;SDS011;53532;53.084;6.352;2023-02-15T08:40:53;164.63;;;85.57;;
66628;SDS011;53532;53.084;6.352;2023-02-15T08:43:19;159.57;;;85.23;;
66628;SDS011;53532;53.084;6.352;2023-02-15T08:45:46;163.13;;;84.70;;
66628;SDS011;53532;53.084;6.352;2023-02-15T08:48:12;160.83;;;88.17;;
66628;SDS011;53532;53.084;6.352;2023-02-15T08:50:38;160.97;;;84.40;;
66628;SDS011;53532;53.084;6.352;2023-02-15T08:53:05;160.47;;;87.77;;
66628;SDS011;53532;53.084;6.352;2023-02-15T08:55:32;157.33;;;81.60;;
66628;SDS011;53532;53.084;6.352;2023-02-15T08:57:58;144.00;;;78.63;;
66628;SDS011;53532;53.084;6.352;2023-02-15T09:00:24;145.33;;;80.10;;
66628;SDS011;53532;53.084;6.352;2023-02-15T09:02:50;134.13;;;75.43;;
66628;SDS011;53532;53.084;6.352;2023-02-15T09:05:17;141.23;;;78.60;;
66628;SDS011;53532;53.084;6.352;2023-02-15T09:07:43;131.10;;;76.07;;
66628;SDS011;53532;53.084;6.352;2023-02-15T09:10:11;138.13;;;76.30;;
66628;SDS011;53532;53.084;6.352;2023-02-15T09:12:37;140.33;;;76.97;;
66628;SDS011;53532;53.084;6.352;2023-02-15T09:15:03;133.10;;;78.40;;
66628;SDS011;53532;53.084;6.352;2023-02-15T09:17:29;141.30;;;79.40;;
66628;SDS011;53532;53.084;6.352;2023-02-15T09:19:56;133.43;;;76.20;;
66628;SDS011;53532;53.084;6.352;2023-02-15T09:22:22;134.33;;;77.53;;
66628;SDS011;53532;53.084;6.352;2023-02-15T09:24:48;133.03;;;74.97;;
66628;SDS011;53532;53.084;6.352;2023-02-15T09:27:15;135.73;;;75.37;;
66628;SDS011;53532;53.084;6.352;2023-02-15T09:29:41;135.10;;;75.03;;
66628;SDS011;53532;53.084;6.352;2023-02-15T09:32:08;127.20;;;74.47;;
66628;SDS011;53532;53.084;6.352;2023-02-15T09:34:34;123.13;;;73.33;;
66628;SDS011;53532;53.084;6.352;2023-02-15T09:37:00;127.17;;;73.70;;
66628;SDS011;53532;53.084;6.352;2023-02-15T09:39:27;126.30;;;70.40;;
66628;SDS011;53532;53.084;6.352;2023-02-15T09:42:18;118.70;;;71.93;;
66628;SDS011;53532;53.084;6.352;2023-02-15T09:44:55;130.07;;;74.57;;
66628;SDS011;53532;53.084;6.352;2023-02-15T09:47:40;132.07;;;75.67;;
66628;SDS011;53532;53.084;6.352;2023-02-15T09:50:10;129.33;;;75.43;;
66628;SDS011;53532;53.084;6.352;2023-02-15T09:52:44;115.47;;;69.97;;
66628;SDS011;53532;53.084;6.352;2023-02-15T09:55:31;117.47;;;69.23;;
66628;SDS011;53532;53.084;6.352;2023-02-15T09:58:01;117.73;;;69.10;;
66628;SDS011;53532;53.084;6.352;2023-02-15T10:00:31;110.27;;;66.63;;
66628;SDS011;53532;53.084;6.352;2023-02-15T10:03:05;103.10;;;63.83;;
66628;SDS011;53532;53.084;6.352;2023-02-15T10:05:37;107.00;;;64.27;;
66628;SDS011;53532;53.084;6.352;2023-02-15T10:08:17;106.93;;;64.40;;
66628;SDS011;53532;53.084;6.352;2023-02-15T10:10:48;107.78;;;64.60;;
66628;SDS011;53532;53.084;6.352;2023-02-15T10:13:24;100.17;;;65.33;;
66628;SDS011;53532;53.084;6.352;2023-02-15T10:15:58;108.68;;;65.25;;
66628;SDS011;53532;53.084;6.352;2023-02-15T10:18:36;103.78;;;63.58;;
66628;SDS011;53532;53.084;6.352;2023-02-15T10:21:04;96.80;;;62.55;;
66628;SDS011;53532;53.084;6.352;2023-02-15T10:23:38;95.70;;;58.97;;
66628;SDS011;53532;53.084;6.352;2023-02-15T10:26:08;95.38;;;60.00;;
66628;SDS011;53532;53.084;6.352;2023-02-15T10:31:07;98.35;;;60.45;;
66628;SDS011;53532;53.084;6.352;2023-02-15T10:33:38;93.82;;;57.60;;
66628;SDS011;53532;53.084;6.352;2023-02-15T10:36:14;90.45;;;58.28;;
66628;SDS011;53532;53.084;6.352;2023-02-15T10:38:46;88.18;;;56.70;;
66628;SDS011;53532;53.084;6.352;2023-02-15T10:41:19;86.28;;;56.20;;
66628;SDS011;53532;53.084;6.352;2023-02-15T10:43:49;84.05;;;55.20;;
66628;SDS011;53532;53.084;6.352;2023-02-15T10:46:23;82.35;;;53.47;;
66628;SDS011;53532;53.084;6.352;2023-02-15T10:48:58;78.50;;;53.63;;
66628;SDS011;53532;53.084;6.352;2023-02-15T10:51:29;78.55;;;51.67;;
66628;SDS011;53532;53.084;6.352;2023-02-15T10:54:02;78.00;;;52.78;;
66628;SDS011;53532;53.084;6.352;2023-02-15T10:56:33;79.40;;;51.97;;
66628;SDS011;53532;53.084;6.352;2023-02-15T10:59:06;81.93;;;53.88;;
66628;SDS011;53532;53.084;6.352;2023-02-15T11:01:38;76.47;;;51.67;;
66628;SDS011;53532;53.084;6.352;2023-02-15T11:06:32;80.25;;;50.78;;
66628;SDS011;53532;53.084;6.352;2023-02-15T11:09:01;76.13;;;49.95;;
66628;SDS011;53532;53.084;6.352;2023-02-15T11:11:29;76.63;;;50.78;;
66628;SDS011;53532;53.084;6.352;2023-02-15T11:13:56;74.57;;;50.65;;
66628;SDS011;53532;53.084;6.352;2023-02-15T11:16:24;78.25;;;51.83;;
66628;SDS011;53532;53.084;6.352;2023-02-15T11:18:53;71.07;;;48.22;;
66628;SDS011;53532;53.084;6.352;2023-02-15T11:21:21;71.63;;;49.00;;
66628;SDS011;53532;53.084;6.352;2023-02-15T11:23:48;69.43;;;49.03;;
66628;SDS011;53532;53.084;6.352;2023-02-15T11:26:15;71.13;;;47.95;;
66628;SDS011;53532;53.084;6.352;2023-02-15T11:28:43;68.63;;;48.45;;
66628;SDS011;53532;53.084;6.352;2023-02-15T11:31:12;69.85;;;47.80;;
66628;SDS011;53532;53.084;6.352;2023-02-15T11:33:39;72.28;;;47.92;;
66628;SDS011;53532;53.084;6.352;2023-02-15T11:36:11;67.72;;;46.15;;
66628;SDS011;53532;53.084;6.352;2023-02-15T11:38:39;66.75;;;46.90;;
66628;SDS011;53532;53.084;6.352;2023-02-15T11:41:09;66.43;;;44.83;;
66628;SDS011;53532;53.084;6.352;2023-02-15T11:43:37;66.35;;;44.97;;
66628;SDS011;53532;53.084;6.352;2023-02-15T11:46:07;67.18;;;46.03;;
66628;SDS011;53532;53.084;6.352;2023-02-15T11:48:34;63.75;;;44.92;;
66628;SDS011;53532;53.084;6.352;2023-02-15T11:51:01;65.88;;;43.80;;
66628;SDS011;53532;53.084;6.352;2023-02-15T11:53:31;63.22;;;42.53;;
66628;SDS011;53532;53.084;6.352;2023-02-15T11:55:57;65.63;;;43.33;;
66628;SDS011;53532;53.084;6.352;2023-02-15T11:58:26;62.78;;;42.80;;
66628;SDS011;53532;53.084;6.352;2023-02-15T12:00:55;58.50;;;42.20;;
66628;SDS011;53532;53.084;6.352;2023-02-15T12:03:24;65.38;;;41.63;;
66628;SDS011;53532;53.084;6.352;2023-02-15T12:05:55;60.80;;;41.97;;
66628;SDS011;53532;53.084;6.352;2023-02-15T12:08:23;60.30;;;41.53;;
66628;SDS011;53532;53.084;6.352;2023-02-15T12:10:57;62.03;;;40.80;;
66628;SDS011;53532;53.084;6.352;2023-02-15T12:13:24;60.35;;;42.58;;
66628;SDS011;53532;53.084;6.352;2023-02-15T12:15:51;68.25;;;43.85;;
66628;SDS011;53532;53.084;6.352;2023-02-15T12:18:19;67.05;;;43.50;;
66628;SDS011;53532;53.084;6.352;2023-02-15T12:20:46;62.33;;;43.33;;
66628;SDS011;53532;53.084;6.352;2023-02-15T12:23:12;68.35;;;44.05;;
66628;SDS011;53532;53.084;6.352;2023-02-15T12:25:40;66.32;;;43.53;;
66628;SDS011;53532;53.084;6.352;2023-02-15T12:28:19;67.05;;;44.63;;
66628;SDS011;53532;53.084;6.352;2023-02-15T12:30:47;70.63;;;45.88;;
66628;SDS011;53532;53.084;6.352;2023-02-15T12:33:15;68.90;;;45.03;;
66628;SDS011;53532;53.084;6.352;2023-02-15T12:35:42;69.13;;;42.83;;
66628;SDS011;53532;53.084;6.352;2023-02-15T12:38:19;64.35;;;41.25;;
66628;SDS011;53532;53.084;6.352;2023-02-15T12:40:55;63.08;;;41.33;;
66628;SDS011;53532;53.084;6.352;2023-02-15T12:43:25;62.75;;;41.30;;
66628;SDS011;53532;53.084;6.352;2023-02-15T12:45:52;64.70;;;43.05;;
66628;SDS011;53532;53.084;6.352;2023-02-15T12:48:19;68.85;;;41.95;;
66628;SDS011;53532;53.084;6.352;2023-02-15T12:50:46;65.28;;;40.38;;
66628;SDS011;53532;53.084;6.352;2023-02-15T12:53:16;56.47;;;38.85;;
66628;SDS011;53532;53.084;6.352;2023-02-15T12:55:53;57.25;;;37.70;;
66628;SDS011;53532;53.084;6.352;2023-02-15T12:58:20;58.97;;;38.90;;
66628;SDS011;53532;53.084;6.352;2023-02-15T13:00:49;53.22;;;34.90;;
66628;SDS011;53532;53.084;6.352;2023-02-15T13:03:28;57.92;;;36.38;;
66628;SDS011;53532;53.084;6.352;2023-02-15T13:05:55;55.85;;;35.90;;
66628;SDS011;53532;53.084;6.352;2023-02-15T13:08:22;57.05;;;37.85;;
66628;SDS011;53532;53.084;6.352;2023-02-15T13:10:53;58.92;;;40.67;;
66628;SDS011;53532;53.084;6.352;2023-02-15T13:13:22;58.90;;;38.63;;
66628;SDS011;53532;53.084;6.352;2023-02-15T13:15:51;60.55;;;39.55;;
66628;SDS011;53532;53.084;6.352;2023-02-15T13:18:19;56.35;;;38.35;;
66628;SDS011;53532;53.084;6.352;2023-02-15T13:20:49;58.40;;;39.60;;
66628;SDS011;53532;53.084;6.352;2023-02-15T13:23:20;53.97;;;37.85;;
66628;SDS011;53532;53.084;6.352;2023-02-15T13:25:48;56.70;;;37.72;;
66628;SDS011;53532;53.084;6.352;2023-02-15T13:28:17;52.47;;;36.50;;
66628;SDS011;53532;53.084;6.352;2023-02-15T13:30:44;55.83;;;37.47;;
66628;SDS011;53532;53.084;6.352;2023-02-15T13:33:14;57.70;;;37.30;;
66628;SDS011;53532;53.084;6.352;2023-02-15T13:35:42;55.53;;;36.35;;
66628;SDS011;53532;53.084;6.352;2023-02-15T13:38:20;52.70;;;36.40;;
66628;SDS011;53532;53.084;6.352;2023-02-15T13:40:48;52.80;;;35.90;;
66628;SDS011;53532;53.084;6.352;2023-02-15T13:43:28;52.17;;;35.67;;
66628;SDS011;53532;53.084;6.352;2023-02-15T13:48:44;53.45;;;36.03;;
66628;SDS011;53532;53.084;6.352;2023-02-15T13:51:13;53.28;;;35.25;;
66628;SDS011;53532;53.084;6.352;2023-02-15T13:53:54;51.05;;;35.80;;
66628;SDS011;53532;53.084;6.352;2023-02-15T13:56:26;49.47;;;35.05;;
66628;SDS011;53532;53.084;6.352;2023-02-15T13:58:58;49.50;;;35.17;;
66628;SDS011;53532;53.084;6.352;2023-02-15T14:01:28;50.70;;;35.08;;
66628;SDS011;53532;53.084;6.352;2023-02-15T14:06:48;48.72;;;33.70;;
66628;SDS011;53532;53.084;6.352;2023-02-15T14:09:20;47.40;;;33.45;;
66628;SDS011;53532;53.084;6.352;2023-02-15T14:11:51;49.80;;;34.83;;
66628;SDS011;53532;53.084;6.352;2023-02-15T14:17:07;46.70;;;33.33;;
66628;SDS011;53532;53.084;6.352;2023-02-15T14:19:35;48.90;;;34.03;;
66628;SDS011;53532;53.084;6.352;2023-02-15T14:22:07;46.08;;;31.88;;
66628;SDS011;53532;53.084;6.352;2023-02-15T14:24:37;43.47;;;30.48;;
66628;SDS011;53532;53.084;6.352;2023-02-15T14:27:08;45.83;;;32.17;;
66628;SDS011;53532;53.084;6.352;2023-02-15T14:32:19;48.58;;;33.10;;
66628;SDS011;53532;53.084;6.352;2023-02-15T14:34:47;48.50;;;32.20;;
66628;SDS011;53532;53.084;6.352;2023-02-15T14:37:16;46.28;;;31.48;;
66628;SDS011;53532;53.084;6.352;2023-02-15T14:39:46;46.38;;;32.70;;
66628;SDS011;53532;53.084;6.352;2023-02-15T14:42:34;46.80;;;31.52;;
66628;SDS011;53532;53.084;6.352;2023-02-15T14:47:31;46.92;;;31.95;;